sensor_id;sensor_type;location;lat;lon;timestamp;temperature;humidity
6174;DHT22;3120;48.796;9.796;2024-01-11T00:00:08;-5.50;99.90
6174;DHT22;3120;48.796;9.796;2024-01-11T00:02:34;-5.50;99.90
6174;DHT22;3120;48.796;9.796;2024-01-11T00:04:59;-5.50;99.90
6174;DHT22;3120;48.796;9.796;2024-01-11T00:07:25;-5.50;99.90
6174;DHT22;3120;48.796;9.796;2024-01-11T00:09:50;-5.50;99.90
6174;DHT22;3120;48.796;9.796;2024-01-11T00:12:16;-5.60;99.90
6174;DHT22;3120;48.796;9.796;2024-01-11T00:14:41;-5.60;99.90
6174;DHT22;3120;48.796;9.796;2024-01-11T00:17:07;-5.70;99.90
6174;DHT22;3120;48.796;9.796;2024-01-11T00:19:33;-5.70;99.90
6174;DHT22;3120;48.796;9.796;2024-01-11T00:21:58;-5.80;99.90
6174;DHT22;3120;48.796;9.796;2024-01-11T00:24:24;-5.80;99.90
6174;DHT22;3120;48.796;9.796;2024-01-11T00:26:49;-5.80;99.90
6174;DHT22;3120;48.796;9.796;2024-01-11T00:29:15;-5.80;99.90
6174;DHT22;3120;48.796;9.796;2024-01-11T00:31:41;-5.80;99.90
6174;DHT22;3120;48.796;9.796;2024-01-11T00:34:06;-5.80;99.90
6174;DHT22;3120;48.796;9.796;2024-01-11T00:36:32;-5.80;99.90
6174;DHT22;3120;48.796;9.796;2024-01-11T00:39:02;-5.80;99.90
6174;DHT22;3120;48.796;9.796;2024-01-11T00:41:27;-5.80;99.90
6174;DHT22;3120;48.796;9.796;2024-01-11T00:43:53;-5.80;99.90
6174;DHT22;3120;48.796;9.796;2024-01-11T00:46:19;-5.80;99.90
6174;DHT22;3120;48.796;9.796;2024-01-11T00:48:44;-5.80;99.90
6174;DHT22;3120;48.796;9.796;2024-01-11T00:51:10;-5.90;99.90
6174;DHT22;3120;48.796;9.796;2024-01-11T00:53:35;-5.90;99.90
6174;DHT22;3120;48.796;9.796;2024-01-11T00:56:01;-5.90;99.90
6174;DHT22;3120;48.796;9.796;2024-01-11T00:58:26;-5.80;99.90
6174;DHT22;3120;48.796;9.796;2024-01-11T01:00:53;-5.80;99.90
6174;DHT22;3120;48.796;9.796;2024-01-11T01:03:19;-5.80;99.90
6174;DHT22;3120;48.796;9.796;2024-01-11T01:05:45;-5.80;99.90
6174;DHT22;3120;48.796;9.796;2024-01-11T01:08:11;-5.80;99.90
6174;DHT22;3120;48.796;9.796;2024-01-11T01:10:37;-5.80;99.90
6174;DHT22;3120;48.796;9.796;2024-01-11T01:13:03;-5.80;99.90
6174;DHT22;3120;48.796;9.796;2024-01-11T01:15:29;-5.80;99.90
6174;DHT22;3120;48.796;9.796;2024-01-11T01:17:54;-5.80;99.90
6174;DHT22;3120;48.796;9.796;2024-01-11T01:22:47;-5.80;99.90
6174;DHT22;3120;48.796;9.796;2024-01-11T01:25:13;-5.80;99.90
6174;DHT22;3120;48.796;9.796;2024-01-11T01:27:39;-5.90;99.90
6174;DHT22;3120;48.796;9.796;2024-01-11T01:30:05;-5.80;99.90
6174;DHT22;3120;48.796;9.796;2024-01-11T01:32:32;-5.90;99.90
6174;DHT22;3120;48.796;9.796;2024-01-11T01:34:57;-5.90;99.90
6174;DHT22;3120;48.796;9.796;2024-01-11T01:37:23;-5.90;99.90
6174;DHT22;3120;48.796;9.796;2024-01-11T01:39:48;-5.90;99.90
6174;DHT22;3120;48.796;9.796;2024-01-11T01:42:14;-6.00;99.90
6174;DHT22;3120;48.796;9.796;2024-01-11T01:44:39;-6.00;99.90
6174;DHT22;3120;48.796;9.796;2024-01-11T01:47:07;-6.00;99.90
6174;DHT22;3120;48.796;9.796;2024-01-11T01:49:34;-6.00;99.90
6174;DHT22;3120;48.796;9.796;2024-01-11T01:52:00;-6.00;99.90
6174;DHT22;3120;48.796;9.796;2024-01-11T01:54:26;-6.00;99.90
6174;DHT22;3120;48.796;9.796;2024-01-11T01:56:53;-6.10;99.90
6174;DHT22;3120;48.796;9.796;2024-01-11T01:59:19;-6.10;99.90
6174;DHT22;3120;48.796;9.796;2024-01-11T02:01:45;-6.10;99.90
6174;DHT22;3120;48.796;9.796;2024-01-11T02:04:11;-6.10;99.90
6174;DHT22;3120;48.796;9.796;2024-01-11T02:06:37;-6.20;99.90
6174;DHT22;3120;48.796;9.796;2024-01-11T02:09:03;-6.20;99.90
6174;DHT22;3120;48.796;9.796;2024-01-11T02:11:30;-6.20;99.90
6174;DHT22;3120;48.796;9.796;2024-01-11T02:13:56;-6.20;99.90
6174;DHT22;3120;48.796;9.796;2024-01-11T02:16:23;-6.20;99.90
6174;DHT22;3120;48.796;9.796;2024-01-11T02:18:48;-6.20;99.90
6174;DHT22;3120;48.796;9.796;2024-01-11T02:21:15;-6.30;99.90
6174;DHT22;3120;48.796;9.796;2024-01-11T02:24:04;-6.20;99.90
6174;DHT22;3120;48.796;9.796;2024-01-11T02:26:30;-6.30;99.90
6174;DHT22;3120;48.796;9.796;2024-01-11T02:28:55;-6.30;99.90
6174;DHT22;3120;48.796;9.796;2024-01-11T02:31:21;-6.30;99.90
6174;DHT22;3120;48.796;9.796;2024-01-11T02:33:47;-6.30;99.90
6174;DHT22;3120;48.796;9.796;2024-01-11T02:36:13;-6.30;99.90
6174;DHT22;3120;48.796;9.796;2024-01-11T02:38:41;-6.30;99.90
6174;DHT22;3120;48.796;9.796;2024-01-11T02:41:07;-6.30;99.90
6174;DHT22;3120;48.796;9.796;2024-01-11T02:43:33;-6.40;99.90
6174;DHT22;3120;48.796;9.796;2024-01-11T02:46:01;-6.40;99.90
6174;DHT22;3120;48.796;9.796;2024-01-11T02:48:28;-6.40;99.90
6174;DHT22;3120;48.796;9.796;2024-01-11T02:50:54;-6.40;99.90
6174;DHT22;3120;48.796;9.796;2024-01-11T02:53:20;-6.40;99.90
6174;DHT22;3120;48.796;9.796;2024-01-11T02:55:45;-6.40;99.90
6174;DHT22;3120;48.796;9.796;2024-01-11T02:58:11;-6.40;99.90
6174;DHT22;3120;48.796;9.796;2024-01-11T03:00:36;-6.50;99.90
6174;DHT22;3120;48.796;9.796;2024-01-11T03:03:02;-6.40;99.90
6174;DHT22;3120;48.796;9.796;2024-01-11T03:05:28;-6.50;99.90
6174;DHT22;3120;48.796;9.796;2024-01-11T03:07:53;-6.50;99.90
6174;DHT22;3120;48.796;9.796;2024-01-11T03:10:19;-6.40;99.90
6174;DHT22;3120;48.796;9.796;2024-01-11T03:12:44;-6.50;99.90
6174;DHT22;3120;48.796;9.796;2024-01-11T03:15:10;-6.50;99.90
6174;DHT22;3120;48.796;9.796;2024-01-11T03:17:36;-6.60;99.90
6174;DHT22;3120;48.796;9.796;2024-01-11T03:20:01;-6.60;99.90
6174;DHT22;3120;48.796;9.796;2024-01-11T03:22:28;-6.60;99.90
6174;DHT22;3120;48.796;9.796;2024-01-11T03:24:54;-6.60;99.90
6174;DHT22;3120;48.796;9.796;2024-01-11T03:27:20;-6.60;99.90
6174;DHT22;3120;48.796;9.796;2024-01-11T03:29:45;-6.60;99.90
6174;DHT22;3120;48.796;9.796;2024-01-11T03:32:11;-6.60;99.90
6174;DHT22;3120;48.796;9.796;2024-01-11T03:34:39;-6.60;99.90
6174;DHT22;3120;48.796;9.796;2024-01-11T03:37:04;-6.60;99.90
6174;DHT22;3120;48.796;9.796;2024-01-11T03:39:30;-6.60;99.90
6174;DHT22;3120;48.796;9.796;2024-01-11T03:41:56;-6.60;99.90
6174;DHT22;3120;48.796;9.796;2024-01-11T03:44:22;-6.60;99.90
6174;DHT22;3120;48.796;9.796;2024-01-11T03:46:48;-6.60;99.90
6174;DHT22;3120;48.796;9.796;2024-01-11T03:49:14;-6.50;99.90
6174;DHT22;3120;48.796;9.796;2024-01-11T03:51:40;-6.60;99.90
6174;DHT22;3120;48.796;9.796;2024-01-11T03:54:05;-6.60;99.90
6174;DHT22;3120;48.796;9.796;2024-01-11T03:56:31;-6.60;99.90
6174;DHT22;3120;48.796;9.796;2024-01-11T03:58:56;-6.60;99.90
6174;DHT22;3120;48.796;9.796;2024-01-11T04:01:22;-6.60;99.90
6174;DHT22;3120;48.796;9.796;2024-01-11T04:03:47;-6.60;99.90
6174;DHT22;3120;48.796;9.796;2024-01-11T04:06:21;-6.60;99.90
6174;DHT22;3120;48.796;9.796;2024-01-11T04:08:48;-6.70;99.90
6174;DHT22;3120;48.796;9.796;2024-01-11T04:11:14;-6.70;99.90
6174;DHT22;3120;48.796;9.796;2024-01-11T04:13:39;-6.70;99.90
6174;DHT22;3120;48.796;9.796;2024-01-11T04:16:05;-6.70;99.90
6174;DHT22;3120;48.796;9.796;2024-01-11T04:18:32;-6.80;99.90
6174;DHT22;3120;48.796;9.796;2024-01-11T04:20:57;-6.80;99.90
6174;DHT22;3120;48.796;9.796;2024-01-11T04:23:23;-6.80;99.90
6174;DHT22;3120;48.796;9.796;2024-01-11T04:25:48;-6.80;99.90
6174;DHT22;3120;48.796;9.796;2024-01-11T04:28:16;-6.80;99.90
6174;DHT22;3120;48.796;9.796;2024-01-11T04:30:41;-6.90;99.90
6174;DHT22;3120;48.796;9.796;2024-01-11T04:33:07;-6.90;99.90
6174;DHT22;3120;48.796;9.796;2024-01-11T04:35:33;-6.90;99.90
6174;DHT22;3120;48.796;9.796;2024-01-11T04:37:58;-6.80;99.90
6174;DHT22;3120;48.796;9.796;2024-01-11T04:40:24;-6.90;99.90
6174;DHT22;3120;48.796;9.796;2024-01-11T04:42:49;-6.80;99.90
6174;DHT22;3120;48.796;9.796;2024-01-11T04:45:15;-6.80;99.90
6174;DHT22;3120;48.796;9.796;2024-01-11T04:47:41;-6.90;99.90
6174;DHT22;3120;48.796;9.796;2024-01-11T04:50:07;-6.90;99.90
6174;DHT22;3120;48.796;9.796;2024-01-11T04:52:32;-6.90;99.90
6174;DHT22;3120;48.796;9.796;2024-01-11T04:54:58;-6.90;99.90
6174;DHT22;3120;48.796;9.796;2024-01-11T04:57:23;-6.90;99.90
6174;DHT22;3120;48.796;9.796;2024-01-11T04:59:49;-6.90;99.90
6174;DHT22;3120;48.796;9.796;2024-01-11T05:02:15;-6.90;99.90
6174;DHT22;3120;48.796;9.796;2024-01-11T05:04:40;-6.90;99.90
6174;DHT22;3120;48.796;9.796;2024-01-11T05:07:06;-7.00;99.90
6174;DHT22;3120;48.796;9.796;2024-01-11T05:09:31;-7.00;99.90
6174;DHT22;3120;48.796;9.796;2024-01-11T05:11:57;-7.00;99.90
6174;DHT22;3120;48.796;9.796;2024-01-11T05:14:23;-7.00;99.90
6174;DHT22;3120;48.796;9.796;2024-01-11T05:16:48;-7.00;99.90
6174;DHT22;3120;48.796;9.796;2024-01-11T05:19:14;-7.00;99.90
6174;DHT22;3120;48.796;9.796;2024-01-11T05:21:39;-7.00;99.90
6174;DHT22;3120;48.796;9.796;2024-01-11T05:24:05;-7.00;99.90
6174;DHT22;3120;48.796;9.796;2024-01-11T05:26:31;-7.00;99.90
6174;DHT22;3120;48.796;9.796;2024-01-11T05:28:57;-7.00;99.90
6174;DHT22;3120;48.796;9.796;2024-01-11T05:31:22;-7.00;99.90
6174;DHT22;3120;48.796;9.796;2024-01-11T05:33:48;-7.00;99.90
6174;DHT22;3120;48.796;9.796;2024-01-11T05:36:14;-7.00;99.90
6174;DHT22;3120;48.796;9.796;2024-01-11T05:38:40;-7.10;99.90
6174;DHT22;3120;48.796;9.796;2024-01-11T05:41:06;-7.00;99.90
6174;DHT22;3120;48.796;9.796;2024-01-11T05:43:31;-6.90;99.90
6174;DHT22;3120;48.796;9.796;2024-01-11T05:45:57;-6.90;99.90
6174;DHT22;3120;48.796;9.796;2024-01-11T05:48:23;-6.90;99.90
6174;DHT22;3120;48.796;9.796;2024-01-11T05:50:49;-6.80;99.90
6174;DHT22;3120;48.796;9.796;2024-01-11T05:53:15;-6.80;99.90
6174;DHT22;3120;48.796;9.796;2024-01-11T05:55:42;-6.80;99.90
6174;DHT22;3120;48.796;9.796;2024-01-11T05:58:08;-6.90;99.90
6174;DHT22;3120;48.796;9.796;2024-01-11T06:00:33;-6.80;99.90
6174;DHT22;3120;48.796;9.796;2024-01-11T06:02:59;-6.80;99.90
6174;DHT22;3120;48.796;9.796;2024-01-11T06:05:25;-6.90;99.90
6174;DHT22;3120;48.796;9.796;2024-01-11T06:07:51;-6.90;99.90
6174;DHT22;3120;48.796;9.796;2024-01-11T06:10:17;-6.90;99.90
6174;DHT22;3120;48.796;9.796;2024-01-11T06:12:42;-6.90;99.90
6174;DHT22;3120;48.796;9.796;2024-01-11T06:15:08;-6.90;99.90
6174;DHT22;3120;48.796;9.796;2024-01-11T06:17:35;-7.00;99.90
6174;DHT22;3120;48.796;9.796;2024-01-11T06:20:00;-7.00;99.90
6174;DHT22;3120;48.796;9.796;2024-01-11T06:22:26;-7.00;99.90
6174;DHT22;3120;48.796;9.796;2024-01-11T06:24:51;-7.00;99.90
6174;DHT22;3120;48.796;9.796;2024-01-11T06:27:17;-7.00;99.90
6174;DHT22;3120;48.796;9.796;2024-01-11T06:29:43;-7.10;99.90
6174;DHT22;3120;48.796;9.796;2024-01-11T06:32:08;-7.10;99.90
6174;DHT22;3120;48.796;9.796;2024-01-11T06:34:35;-7.10;99.90
6174;DHT22;3120;48.796;9.796;2024-01-11T06:37:01;-7.10;99.90
6174;DHT22;3120;48.796;9.796;2024-01-11T06:39:28;-7.00;99.90
6174;DHT22;3120;48.796;9.796;2024-01-11T06:41:55;-7.00;99.90
6174;DHT22;3120;48.796;9.796;2024-01-11T06:44:20;-7.00;99.90
6174;DHT22;3120;48.796;9.796;2024-01-11T06:46:46;-7.00;99.90
6174;DHT22;3120;48.796;9.796;2024-01-11T06:49:12;-7.00;99.90
6174;DHT22;3120;48.796;9.796;2024-01-11T06:51:37;-7.00;99.90
6174;DHT22;3120;48.796;9.796;2024-01-11T06:54:04;-7.00;99.90
6174;DHT22;3120;48.796;9.796;2024-01-11T06:56:30;-7.00;99.90
6174;DHT22;3120;48.796;9.796;2024-01-11T06:58:56;-7.00;99.90
6174;DHT22;3120;48.796;9.796;2024-01-11T07:01:21;-7.00;99.90
6174;DHT22;3120;48.796;9.796;2024-01-11T07:03:48;-7.10;99.90
6174;DHT22;3120;48.796;9.796;2024-01-11T07:06:14;-7.10;99.90
6174;DHT22;3120;48.796;9.796;2024-01-11T07:08:40;-7.10;99.90
6174;DHT22;3120;48.796;9.796;2024-01-11T07:11:06;-7.10;99.90
6174;DHT22;3120;48.796;9.796;2024-01-11T07:13:32;-7.10;99.90
6174;DHT22;3120;48.796;9.796;2024-01-11T07:15:58;-7.10;99.90
6174;DHT22;3120;48.796;9.796;2024-01-11T07:18:24;-7.10;99.90
6174;DHT22;3120;48.796;9.796;2024-01-11T07:20:51;-7.10;99.90
6174;DHT22;3120;48.796;9.796;2024-01-11T07:23:16;-7.10;99.90
6174;DHT22;3120;48.796;9.796;2024-01-11T07:25:42;-7.10;99.90
6174;DHT22;3120;48.796;9.796;2024-01-11T07:28:08;-7.10;99.90
6174;DHT22;3120;48.796;9.796;2024-01-11T07:30:34;-7.10;99.90
6174;DHT22;3120;48.796;9.796;2024-01-11T07:33:00;-7.00;99.90
6174;DHT22;3120;48.796;9.796;2024-01-11T07:35:25;-7.00;99.90
6174;DHT22;3120;48.796;9.796;2024-01-11T07:37:51;-6.90;99.90
6174;DHT22;3120;48.796;9.796;2024-01-11T07:40:16;-6.90;99.90
6174;DHT22;3120;48.796;9.796;2024-01-11T07:42:42;-6.90;99.90
6174;DHT22;3120;48.796;9.796;2024-01-11T07:45:09;-6.90;99.90
6174;DHT22;3120;48.796;9.796;2024-01-11T07:47:35;-6.80;99.90
6174;DHT22;3120;48.796;9.796;2024-01-11T07:50:06;-6.80;99.90
6174;DHT22;3120;48.796;9.796;2024-01-11T07:52:32;-6.80;99.90
6174;DHT22;3120;48.796;9.796;2024-01-11T07:54:58;-6.80;99.90
6174;DHT22;3120;48.796;9.796;2024-01-11T07:57:34;-6.80;99.90
6174;DHT22;3120;48.796;9.796;2024-01-11T08:00:00;-6.70;99.90
6174;DHT22;3120;48.796;9.796;2024-01-11T08:02:26;-6.70;99.90
6174;DHT22;3120;48.796;9.796;2024-01-11T08:04:52;-6.60;99.90
6174;DHT22;3120;48.796;9.796;2024-01-11T08:07:17;-6.60;99.90
6174;DHT22;3120;48.796;9.796;2024-01-11T08:09:43;-6.50;99.90
6174;DHT22;3120;48.796;9.796;2024-01-11T08:12:12;-6.40;99.90
6174;DHT22;3120;48.796;9.796;2024-01-11T08:14:41;-6.30;99.90
6174;DHT22;3120;48.796;9.796;2024-01-11T08:17:12;-6.30;99.90
6174;DHT22;3120;48.796;9.796;2024-01-11T08:19:39;-6.20;99.90
6174;DHT22;3120;48.796;9.796;2024-01-11T08:22:05;-6.10;99.90
6174;DHT22;3120;48.796;9.796;2024-01-11T08:24:31;-6.10;99.90
6174;DHT22;3120;48.796;9.796;2024-01-11T08:26:56;-6.10;99.90
6174;DHT22;3120;48.796;9.796;2024-01-11T08:29:23;-6.10;99.90
6174;DHT22;3120;48.796;9.796;2024-01-11T08:31:48;-6.00;99.90
6174;DHT22;3120;48.796;9.796;2024-01-11T08:34:14;-6.00;99.90
6174;DHT22;3120;48.796;9.796;2024-01-11T08:36:39;-5.90;99.90
6174;DHT22;3120;48.796;9.796;2024-01-11T08:39:06;-5.80;99.90
6174;DHT22;3120;48.796;9.796;2024-01-11T08:41:32;-5.60;99.90
6174;DHT22;3120;48.796;9.796;2024-01-11T08:43:58;-5.50;99.90
6174;DHT22;3120;48.796;9.796;2024-01-11T08:46:27;-5.30;99.90
6174;DHT22;3120;48.796;9.796;2024-01-11T08:48:54;-5.00;99.90
6174;DHT22;3120;48.796;9.796;2024-01-11T08:51:21;-4.50;99.90
6174;DHT22;3120;48.796;9.796;2024-01-11T08:53:47;-4.00;99.90
6174;DHT22;3120;48.796;9.796;2024-01-11T08:56:12;-3.60;99.90
6174;DHT22;3120;48.796;9.796;2024-01-11T08:58:40;-3.40;99.90
6174;DHT22;3120;48.796;9.796;2024-01-11T09:01:05;-3.00;99.90
6174;DHT22;3120;48.796;9.796;2024-01-11T09:03:37;-2.50;99.90
6174;DHT22;3120;48.796;9.796;2024-01-11T09:06:03;-1.90;99.90
6174;DHT22;3120;48.796;9.796;2024-01-11T09:08:29;-1.70;99.90
6174;DHT22;3120;48.796;9.796;2024-01-11T09:10:55;-1.50;99.90
6174;DHT22;3120;48.796;9.796;2024-01-11T09:13:21;-1.00;99.90
6174;DHT22;3120;48.796;9.796;2024-01-11T09:15:46;-1.00;99.90
6174;DHT22;3120;48.796;9.796;2024-01-11T09:18:12;-0.90;99.90
6174;DHT22;3120;48.796;9.796;2024-01-11T09:20:38;-0.40;99.90
6174;DHT22;3120;48.796;9.796;2024-01-11T09:23:03;-0.10;99.90
6174;DHT22;3120;48.796;9.796;2024-01-11T09:25:30;0.40;99.90
6174;DHT22;3120;48.796;9.796;2024-01-11T09:27:56;1.20;99.90
6174;DHT22;3120;48.796;9.796;2024-01-11T09:30:21;1.00;99.90
6174;DHT22;3120;48.796;9.796;2024-01-11T09:32:47;1.60;98.50
6174;DHT22;3120;48.796;9.796;2024-01-11T09:35:13;1.80;97.70
6174;DHT22;3120;48.796;9.796;2024-01-11T09:37:39;2.50;95.50
6174;DHT22;3120;48.796;9.796;2024-01-11T09:40:05;1.70;94.70
6174;DHT22;3120;48.796;9.796;2024-01-11T09:42:36;0.90;96.50
6174;DHT22;3120;48.796;9.796;2024-01-11T09:45:09;0.60;97.30
6174;DHT22;3120;48.796;9.796;2024-01-11T09:47:36;0.60;97.40
6174;DHT22;3120;48.796;9.796;2024-01-11T09:50:03;1.70;96.80
6174;DHT22;3120;48.796;9.796;2024-01-11T09:52:29;3.30;93.80
6174;DHT22;3120;48.796;9.796;2024-01-11T09:55:00;2.90;92.30
6174;DHT22;3120;48.796;9.796;2024-01-11T09:57:30;2.50;93.00
6174;DHT22;3120;48.796;9.796;2024-01-11T09:59:58;2.20;93.50
6174;DHT22;3120;48.796;9.796;2024-01-11T10:02:24;1.50;94.40
6174;DHT22;3120;48.796;9.796;2024-01-11T10:04:53;1.80;94.80
6174;DHT22;3120;48.796;9.796;2024-01-11T10:07:22;2.20;94.00
6174;DHT22;3120;48.796;9.796;2024-01-11T10:09:49;2.70;92.70
6174;DHT22;3120;48.796;9.796;2024-01-11T10:12:15;2.90;91.80
6174;DHT22;3120;48.796;9.796;2024-01-11T10:14:41;2.90;91.80
6174;DHT22;3120;48.796;9.796;2024-01-11T10:17:07;2.30;92.60
6174;DHT22;3120;48.796;9.796;2024-01-11T10:19:32;2.00;93.30
6174;DHT22;3120;48.796;9.796;2024-01-11T10:21:58;2.90;93.00
6174;DHT22;3120;48.796;9.796;2024-01-11T10:24:24;3.40;92.30
6174;DHT22;3120;48.796;9.796;2024-01-11T10:26:57;4.30;89.90
6174;DHT22;3120;48.796;9.796;2024-01-11T10:29:30;4.50;88.90
6174;DHT22;3120;48.796;9.796;2024-01-11T10:31:55;4.30;87.70
6174;DHT22;3120;48.796;9.796;2024-01-11T10:34:23;4.80;86.40
6174;DHT22;3120;48.796;9.796;2024-01-11T10:36:50;4.20;87.40
6174;DHT22;3120;48.796;9.796;2024-01-11T10:39:17;4.20;88.80
6174;DHT22;3120;48.796;9.796;2024-01-11T10:41:47;3.90;89.70
6174;DHT22;3120;48.796;9.796;2024-01-11T10:44:20;4.10;88.50
6174;DHT22;3120;48.796;9.796;2024-01-11T10:46:48;4.10;88.60
6174;DHT22;3120;48.796;9.796;2024-01-11T10:49:17;4.40;86.80
6174;DHT22;3120;48.796;9.796;2024-01-11T10:51:52;4.70;85.80
6174;DHT22;3120;48.796;9.796;2024-01-11T10:54:20;4.60;85.10
6174;DHT22;3120;48.796;9.796;2024-01-11T10:56:46;5.40;82.70
6174;DHT22;3120;48.796;9.796;2024-01-11T10:59:13;4.80;83.10
6174;DHT22;3120;48.796;9.796;2024-01-11T11:01:39;4.70;84.20
6174;DHT22;3120;48.796;9.796;2024-01-11T11:04:06;5.00;85.20
6174;DHT22;3120;48.796;9.796;2024-01-11T11:06:34;6.20;80.50
6174;DHT22;3120;48.796;9.796;2024-01-11T11:09:01;6.10;79.00
6174;DHT22;3120;48.796;9.796;2024-01-11T11:11:30;6.40;80.00
6174;DHT22;3120;48.796;9.796;2024-01-11T11:13:58;7.60;74.40
6174;DHT22;3120;48.796;9.796;2024-01-11T11:16:26;8.20;71.80
6174;DHT22;3120;48.796;9.796;2024-01-11T11:18:56;8.60;69.80
6174;DHT22;3120;48.796;9.796;2024-01-11T11:21:22;8.50;68.90
6174;DHT22;3120;48.796;9.796;2024-01-11T11:23:50;8.70;67.40
6174;DHT22;3120;48.796;9.796;2024-01-11T11:26:16;8.00;68.30
6174;DHT22;3120;48.796;9.796;2024-01-11T11:28:47;7.50;69.00
6174;DHT22;3120;48.796;9.796;2024-01-11T11:31:34;6.60;72.40
6174;DHT22;3120;48.796;9.796;2024-01-11T11:34:00;6.50;73.00
6174;DHT22;3120;48.796;9.796;2024-01-11T11:36:29;6.50;73.00
6174;DHT22;3120;48.796;9.796;2024-01-11T11:38:57;6.40;73.00
6174;DHT22;3120;48.796;9.796;2024-01-11T11:41:26;7.50;70.20
6174;DHT22;3120;48.796;9.796;2024-01-11T11:43:52;8.00;68.80
6174;DHT22;3120;48.796;9.796;2024-01-11T11:46:21;9.10;65.80
6174;DHT22;3120;48.796;9.796;2024-01-11T11:51:14;8.80;65.40
6174;DHT22;3120;48.796;9.796;2024-01-11T11:53:41;9.00;63.70
6174;DHT22;3120;48.796;9.796;2024-01-11T11:56:08;7.70;66.20
6174;DHT22;3120;48.796;9.796;2024-01-11T11:58:38;7.00;69.60
6174;DHT22;3120;48.796;9.796;2024-01-11T12:01:08;8.60;66.40
6174;DHT22;3120;48.796;9.796;2024-01-11T12:03:42;9.50;62.80
6174;DHT22;3120;48.796;9.796;2024-01-11T12:06:09;8.20;65.60
6174;DHT22;3120;48.796;9.796;2024-01-11T12:08:36;8.60;66.00
6174;DHT22;3120;48.796;9.796;2024-01-11T12:11:02;8.30;65.50
6174;DHT22;3120;48.796;9.796;2024-01-11T12:13:28;7.90;66.30
6174;DHT22;3120;48.796;9.796;2024-01-11T12:15:56;7.20;67.80
6174;DHT22;3120;48.796;9.796;2024-01-11T12:18:22;6.90;68.80
6174;DHT22;3120;48.796;9.796;2024-01-11T12:20:48;6.80;69.50
6174;DHT22;3120;48.796;9.796;2024-01-11T12:23:13;6.40;71.10
6174;DHT22;3120;48.796;9.796;2024-01-11T12:25:42;7.50;69.10
6174;DHT22;3120;48.796;9.796;2024-01-11T12:28:09;7.30;68.10
6174;DHT22;3120;48.796;9.796;2024-01-11T12:30:34;6.90;69.10
6174;DHT22;3120;48.796;9.796;2024-01-11T12:33:00;6.40;69.80
6174;DHT22;3120;48.796;9.796;2024-01-11T12:35:27;5.90;71.70
6174;DHT22;3120;48.796;9.796;2024-01-11T12:37:58;5.90;72.80
6174;DHT22;3120;48.796;9.796;2024-01-11T12:40:25;6.00;72.40
6174;DHT22;3120;48.796;9.796;2024-01-11T12:42:52;5.90;73.50
6174;DHT22;3120;48.796;9.796;2024-01-11T12:45:19;6.20;72.80
6174;DHT22;3120;48.796;9.796;2024-01-11T12:47:45;6.20;71.90
6174;DHT22;3120;48.796;9.796;2024-01-11T12:50:11;6.10;72.50
6174;DHT22;3120;48.796;9.796;2024-01-11T12:52:40;6.20;72.30
6174;DHT22;3120;48.796;9.796;2024-01-11T12:55:07;5.80;73.00
6174;DHT22;3120;48.796;9.796;2024-01-11T12:57:33;5.50;74.30
6174;DHT22;3120;48.796;9.796;2024-01-11T13:00:10;5.80;74.30
6174;DHT22;3120;48.796;9.796;2024-01-11T13:02:36;5.60;74.60
6174;DHT22;3120;48.796;9.796;2024-01-11T13:05:02;6.10;73.40
6174;DHT22;3120;48.796;9.796;2024-01-11T13:07:28;6.10;73.20
6174;DHT22;3120;48.796;9.796;2024-01-11T13:09:53;5.50;74.20
6174;DHT22;3120;48.796;9.796;2024-01-11T13:12:19;5.60;73.60
6174;DHT22;3120;48.796;9.796;2024-01-11T13:14:46;5.90;73.80
6174;DHT22;3120;48.796;9.796;2024-01-11T13:17:12;6.00;73.20
6174;DHT22;3120;48.796;9.796;2024-01-11T13:19:38;6.20;72.80
6174;DHT22;3120;48.796;9.796;2024-01-11T13:22:04;6.80;69.80
6174;DHT22;3120;48.796;9.796;2024-01-11T13:24:30;6.70;69.80
6174;DHT22;3120;48.796;9.796;2024-01-11T13:26:55;5.70;71.30
6174;DHT22;3120;48.796;9.796;2024-01-11T13:29:21;4.10;76.30
6174;DHT22;3120;48.796;9.796;2024-01-11T13:31:47;3.10;80.50
6174;DHT22;3120;48.796;9.796;2024-01-11T13:34:12;2.80;82.70
6174;DHT22;3120;48.796;9.796;2024-01-11T13:36:38;2.70;83.70
6174;DHT22;3120;48.796;9.796;2024-01-11T13:39:04;2.50;84.10
6174;DHT22;3120;48.796;9.796;2024-01-11T13:41:29;2.30;84.40
6174;DHT22;3120;48.796;9.796;2024-01-11T13:43:55;2.10;85.10
6174;DHT22;3120;48.796;9.796;2024-01-11T13:46:21;2.10;85.40
6174;DHT22;3120;48.796;9.796;2024-01-11T13:48:46;1.90;86.20
6174;DHT22;3120;48.796;9.796;2024-01-11T13:51:13;1.90;86.70
6174;DHT22;3120;48.796;9.796;2024-01-11T13:53:40;1.90;87.20
6174;DHT22;3120;48.796;9.796;2024-01-11T13:56:06;1.80;87.00
6174;DHT22;3120;48.796;9.796;2024-01-11T13:58:31;1.70;87.30
6174;DHT22;3120;48.796;9.796;2024-01-11T14:00:57;1.70;87.50
6174;DHT22;3120;48.796;9.796;2024-01-11T14:03:24;1.70;88.30
6174;DHT22;3120;48.796;9.796;2024-01-11T14:05:49;1.70;88.60
6174;DHT22;3120;48.796;9.796;2024-01-11T14:08:15;1.70;88.10
6174;DHT22;3120;48.796;9.796;2024-01-11T14:10:41;1.70;88.10
6174;DHT22;3120;48.796;9.796;2024-01-11T14:13:06;1.70;88.50
6174;DHT22;3120;48.796;9.796;2024-01-11T14:15:32;1.60;88.50
6174;DHT22;3120;48.796;9.796;2024-01-11T14:17:57;1.70;88.60
6174;DHT22;3120;48.796;9.796;2024-01-11T14:20:23;1.70;88.60
6174;DHT22;3120;48.796;9.796;2024-01-11T14:22:50;1.50;89.10
6174;DHT22;3120;48.796;9.796;2024-01-11T14:25:17;1.40;89.10
6174;DHT22;3120;48.796;9.796;2024-01-11T14:27:43;1.30;89.30
6174;DHT22;3120;48.796;9.796;2024-01-11T14:30:10;1.30;89.90
6174;DHT22;3120;48.796;9.796;2024-01-11T14:32:36;1.40;89.70
6174;DHT22;3120;48.796;9.796;2024-01-11T14:35:02;1.30;89.80
6174;DHT22;3120;48.796;9.796;2024-01-11T14:37:33;1.20;90.30
6174;DHT22;3120;48.796;9.796;2024-01-11T14:39:59;1.20;90.30
6174;DHT22;3120;48.796;9.796;2024-01-11T14:42:25;1.20;90.40
6174;DHT22;3120;48.796;9.796;2024-01-11T14:44:51;1.20;90.50
6174;DHT22;3120;48.796;9.796;2024-01-11T14:47:17;1.20;90.40
6174;DHT22;3120;48.796;9.796;2024-01-11T14:49:43;1.10;90.50
6174;DHT22;3120;48.796;9.796;2024-01-11T14:52:09;1.10;90.80
6174;DHT22;3120;48.796;9.796;2024-01-11T14:54:34;1.00;91.00
6174;DHT22;3120;48.796;9.796;2024-01-11T14:57:00;1.00;91.10
6174;DHT22;3120;48.796;9.796;2024-01-11T14:59:26;0.80;91.60
6174;DHT22;3120;48.796;9.796;2024-01-11T15:01:51;0.70;92.00
6174;DHT22;3120;48.796;9.796;2024-01-11T15:04:17;0.60;92.10
6174;DHT22;3120;48.796;9.796;2024-01-11T15:06:43;0.60;92.30
6174;DHT22;3120;48.796;9.796;2024-01-11T15:09:10;0.50;92.60
6174;DHT22;3120;48.796;9.796;2024-01-11T15:11:41;0.40;93.00
6174;DHT22;3120;48.796;9.796;2024-01-11T15:14:07;0.30;93.30
6174;DHT22;3120;48.796;9.796;2024-01-11T15:16:35;0.20;93.60
6174;DHT22;3120;48.796;9.796;2024-01-11T15:19:01;0.10;94.10
6174;DHT22;3120;48.796;9.796;2024-01-11T15:21:26;0.00;94.50
6174;DHT22;3120;48.796;9.796;2024-01-11T15:23:54;0.00;94.80
6174;DHT22;3120;48.796;9.796;2024-01-11T15:26:19;-0.10;94.80
6174;DHT22;3120;48.796;9.796;2024-01-11T15:28:45;-0.10;95.00
6174;DHT22;3120;48.796;9.796;2024-01-11T15:31:11;-0.20;95.30
6174;DHT22;3120;48.796;9.796;2024-01-11T15:33:37;-0.20;95.50
6174;DHT22;3120;48.796;9.796;2024-01-11T15:36:02;-0.30;95.80
6174;DHT22;3120;48.796;9.796;2024-01-11T15:38:29;-0.30;96.20
6174;DHT22;3120;48.796;9.796;2024-01-11T15:40:55;-0.40;96.40
6174;DHT22;3120;48.796;9.796;2024-01-11T15:43:21;-0.50;96.80
6174;DHT22;3120;48.796;9.796;2024-01-11T15:45:46;-0.50;97.00
6174;DHT22;3120;48.796;9.796;2024-01-11T15:48:12;-0.60;97.30
6174;DHT22;3120;48.796;9.796;2024-01-11T15:50:37;-0.70;97.70
6174;DHT22;3120;48.796;9.796;2024-01-11T15:53:03;-0.80;98.30
6174;DHT22;3120;48.796;9.796;2024-01-11T15:55:35;-0.80;98.70
6174;DHT22;3120;48.796;9.796;2024-01-11T15:58:19;-0.80;98.70
6174;DHT22;3120;48.796;9.796;2024-01-11T16:00:48;-0.90;99.30
6174;DHT22;3120;48.796;9.796;2024-01-11T16:03:14;-1.10;99.90
6174;DHT22;3120;48.796;9.796;2024-01-11T16:05:39;-1.20;99.90